createdAt,value
2019-03-29T00:00:32.076Z,31.90
2019-03-29T00:03:02.190Z,27.53
2019-03-29T00:05:32.092Z,31.80
2019-03-29T00:08:02.142Z,38.87
2019-03-29T00:10:31.842Z,39.33
2019-03-29T00:13:02.000Z,38.07
2019-03-29T00:15:32.047Z,40.57
2019-03-29T00:18:01.820Z,42.93
2019-03-29T00:20:31.982Z,46.77
2019-03-29T00:23:01.998Z,44.67
2019-03-29T00:25:33.065Z,41.83
2019-03-29T00:28:02.863Z,47.77
2019-03-29T00:30:33.167Z,45.47
2019-03-29T00:33:02.918Z,47.20
2019-03-29T00:35:34.008Z,53.80
2019-03-29T00:38:03.870Z,52.63
2019-03-29T00:40:33.586Z,51.63
2019-03-29T00:43:03.274Z,48.17
2019-03-29T00:45:33.349Z,49.03
2019-03-29T00:48:03.169Z,49.13
2019-03-29T00:50:33.517Z,50.30
2019-03-29T00:53:03.224Z,46.87
2019-03-29T00:55:33.056Z,46.80
2019-03-29T00:58:02.767Z,51.10
2019-03-29T01:00:33.664Z,50.20
2019-03-29T01:03:03.525Z,49.97
2019-03-29T01:05:33.538Z,50.83
2019-03-29T01:08:08.243Z,50.00
2019-03-29T01:10:35.724Z,45.97
2019-03-29T01:13:05.499Z,49.43
2019-03-29T01:15:35.960Z,53.53
2019-03-29T01:18:06.199Z,51.10
2019-03-29T01:20:35.982Z,49.67
2019-03-29T01:23:05.699Z,52.57
2019-03-29T01:25:35.472Z,51.63
2019-03-29T01:28:05.606Z,52.77
2019-03-29T01:30:35.687Z,57.03
2019-03-29T01:33:06.279Z,53.33
2019-03-29T01:35:36.123Z,51.57
2019-03-29T01:38:06.030Z,52.70
2019-03-29T01:40:35.731Z,49.40
2019-03-29T01:43:05.541Z,54.40
2019-03-29T01:45:35.309Z,54.10
2019-03-29T01:48:05.368Z,55.73
2019-03-29T01:50:35.373Z,55.43
2019-03-29T01:53:05.117Z,58.73
2019-03-29T01:55:34.816Z,50.73
2019-03-29T01:58:05.155Z,54.07
2019-03-29T02:00:36.284Z,60.77
2019-03-29T02:03:06.475Z,53.90
2019-03-29T02:05:36.204Z,56.53
2019-03-29T02:08:05.945Z,53.37
2019-03-29T02:10:35.751Z,55.67
2019-03-29T02:13:05.633Z,51.60
2019-03-29T02:15:35.422Z,58.67
2019-03-29T02:18:05.785Z,53.17
2019-03-29T02:20:36.347Z,59.93
2019-03-29T02:23:06.779Z,55.10
2019-03-29T02:25:36.503Z,53.27
2019-03-29T02:28:06.201Z,53.03
2019-03-29T02:30:35.897Z,55.73
2019-03-29T02:33:05.673Z,53.23
2019-03-29T02:35:35.457Z,56.47
2019-03-29T02:38:05.621Z,56.93
2019-03-29T02:40:35.503Z,56.67
2019-03-29T02:43:05.592Z,57.33
2019-03-29T02:45:35.303Z,57.37
2019-03-29T02:48:04.998Z,60.83
2019-03-29T02:50:34.731Z,59.17
2019-03-29T02:53:05.933Z,56.50
2019-03-29T02:55:36.076Z,59.33
2019-03-29T02:58:06.115Z,63.33
2019-03-29T03:00:36.752Z,62.87
2019-03-29T03:03:06.897Z,60.10
2019-03-29T03:05:37.085Z,62.83
2019-03-29T03:08:06.779Z,62.83
2019-03-29T03:10:36.559Z,66.20
2019-03-29T03:13:06.323Z,63.53
2019-03-29T03:15:36.090Z,62.37
2019-03-29T03:18:05.898Z,67.93
2019-03-29T03:20:35.961Z,63.37
2019-03-29T03:23:06.093Z,64.70
2019-03-29T03:25:35.840Z,63.23
2019-03-29T03:28:05.631Z,62.53
2019-03-29T03:30:35.693Z,61.40
2019-03-29T03:33:05.908Z,63.50
2019-03-29T03:35:35.653Z,66.27
2019-03-29T03:38:06.306Z,65.83
2019-03-29T03:40:36.104Z,64.83
2019-03-29T03:43:06.450Z,63.43
2019-03-29T03:45:36.227Z,66.13
2019-03-29T03:48:05.936Z,66.47
2019-03-29T03:50:43.952Z,66.67
2019-03-29T03:53:14.033Z,63.27
2019-03-29T03:55:44.438Z,69.47
2019-03-29T03:58:14.233Z,68.00
2019-03-29T04:00:51.902Z,65.73
2019-03-29T04:03:22.485Z,70.93
2019-03-29T04:05:52.971Z,70.73
2019-03-29T04:08:22.991Z,71.67
2019-03-29T04:10:52.750Z,70.00
2019-03-29T04:13:22.855Z,64.50
2019-03-29T04:15:52.972Z,64.60
2019-03-29T04:18:22.860Z,71.27
2019-03-29T04:20:53.016Z,70.30
2019-03-29T04:23:22.804Z,66.00
2019-03-29T04:25:52.603Z,67.33
2019-03-29T04:28:22.394Z,67.00
2019-03-29T04:30:52.555Z,74.07
2019-03-29T04:33:22.310Z,64.57
2019-03-29T04:35:52.049Z,73.67
2019-03-29T04:38:22.335Z,68.90
2019-03-29T04:40:52.188Z,68.40
2019-03-29T04:43:22.221Z,66.57
2019-03-29T04:45:52.036Z,76.30
2019-03-29T04:48:21.797Z,70.67
2019-03-29T04:50:51.598Z,68.17
2019-03-29T04:53:21.290Z,71.90
2019-03-29T04:55:51.061Z,74.63
2019-03-29T04:58:20.749Z,74.73
2019-03-29T05:00:50.484Z,77.87
2019-03-29T05:03:20.251Z,77.63
2019-03-29T05:05:49.982Z,74.33
2019-03-29T05:08:19.754Z,75.20
2019-03-29T05:10:49.547Z,74.73
2019-03-29T05:13:19.242Z,73.47
2019-03-29T05:15:49.285Z,71.90
2019-03-29T05:18:19.039Z,73.70
2019-03-29T05:20:48.823Z,78.57
2019-03-29T05:23:18.973Z,77.43
2019-03-29T05:25:49.157Z,77.80
2019-03-29T05:28:18.849Z,78.70
2019-03-29T05:30:49.210Z,77.23
2019-03-29T05:33:18.919Z,76.17
2019-03-29T05:35:48.621Z,77.93
2019-03-29T05:38:18.311Z,72.03
2019-03-29T05:40:48.030Z,71.37
2019-03-29T05:43:18.148Z,72.63
2019-03-29T05:45:48.361Z,75.90
2019-03-29T05:48:18.437Z,81.23
2019-03-29T05:50:48.629Z,77.53
2019-03-29T05:53:18.345Z,73.33
2019-03-29T05:55:48.381Z,76.23
2019-03-29T05:58:18.663Z,71.03
2019-03-29T06:00:48.591Z,74.83
2019-03-29T06:03:18.351Z,73.00
2019-03-29T06:05:48.331Z,73.70
2019-03-29T06:08:18.239Z,75.80
2019-03-29T06:10:49.564Z,73.83
2019-03-29T06:13:20.099Z,76.37
2019-03-29T06:15:51.045Z,74.47
2019-03-29T06:18:21.116Z,75.27
2019-03-29T06:20:50.975Z,74.93
2019-03-29T06:23:20.953Z,70.93
2019-03-29T06:25:50.717Z,74.67
2019-03-29T06:28:20.774Z,72.73
2019-03-29T06:30:50.477Z,79.20
2019-03-29T06:33:20.502Z,77.93
2019-03-29T06:35:51.959Z,76.60
2019-03-29T06:38:25.123Z,80.43
2019-03-29T06:41:02.765Z,86.20
2019-03-29T06:43:26.264Z,82.43
2019-03-29T06:45:56.144Z,85.43
2019-03-29T06:48:26.224Z,78.17
2019-03-29T06:50:56.272Z,77.83
2019-03-29T06:53:26.393Z,83.70
2019-03-29T06:55:59.249Z,84.97
2019-03-29T06:58:27.692Z,79.83
2019-03-29T07:00:57.407Z,87.67
2019-03-29T07:03:27.101Z,75.37
2019-03-29T07:05:57.486Z,73.67
2019-03-29T07:08:27.243Z,77.40
2019-03-29T07:10:57.322Z,73.07
2019-03-29T07:13:27.022Z,79.47
2019-03-29T07:15:56.850Z,72.37
2019-03-29T07:18:26.926Z,77.30
2019-03-29T07:20:56.630Z,75.07
2019-03-29T07:23:26.414Z,77.57
2019-03-29T07:25:56.654Z,79.53
2019-03-29T07:28:26.926Z,74.33
2019-03-29T07:30:57.076Z,74.10
2019-03-29T07:33:27.194Z,74.00
2019-03-29T07:35:56.924Z,73.43
2019-03-29T07:38:26.648Z,69.00
2019-03-29T07:40:56.841Z,69.70
2019-03-29T07:43:26.614Z,68.93
2019-03-29T07:45:56.980Z,69.63
2019-03-29T07:48:27.059Z,67.83
2019-03-29T07:50:57.125Z,70.27
2019-03-29T07:53:27.538Z,72.13
2019-03-29T07:55:57.409Z,66.60
2019-03-29T07:58:27.196Z,67.07
2019-03-29T08:01:00.279Z,67.27
2019-03-29T08:03:29.996Z,69.60
2019-03-29T08:06:00.403Z,66.40
2019-03-29T08:08:33.391Z,67.60
2019-03-29T08:11:01.833Z,62.20
2019-03-29T08:13:31.834Z,65.17
2019-03-29T08:16:01.803Z,61.33
2019-03-29T08:18:31.575Z,62.50
2019-03-29T08:21:01.627Z,58.77
2019-03-29T08:23:31.352Z,59.93
2019-03-29T08:26:01.062Z,59.27
2019-03-29T08:28:33.516Z,61.30
2019-03-29T08:31:03.221Z,55.57
2019-03-29T08:33:33.023Z,54.73
2019-03-29T08:36:02.828Z,55.77
2019-03-29T08:38:32.675Z,50.07
2019-03-29T08:41:02.919Z,47.17
2019-03-29T08:43:33.113Z,50.60
2019-03-29T08:46:02.890Z,50.97
2019-03-29T08:48:32.688Z,42.40
2019-03-29T08:51:02.760Z,50.50
2019-03-29T08:53:32.498Z,50.47
2019-03-29T08:56:02.246Z,46.60
2019-03-29T08:58:32.120Z,46.57
2019-03-29T09:01:02.321Z,49.80
2019-03-29T09:03:32.133Z,44.07
2019-03-29T09:06:02.215Z,44.50
2019-03-29T09:08:31.943Z,42.17
2019-03-29T09:11:02.013Z,38.43
2019-03-29T09:13:31.750Z,40.23
2019-03-29T09:16:01.591Z,38.20
2019-03-29T09:18:31.515Z,33.40
2019-03-29T09:21:01.717Z,33.17
2019-03-29T09:23:31.597Z,35.00
2019-03-29T09:26:01.491Z,36.00
2019-03-29T09:28:33.075Z,33.27
2019-03-29T09:31:03.150Z,31.90
2019-03-29T09:33:33.219Z,33.10
2019-03-29T09:36:05.005Z,29.67
2019-03-29T09:38:34.769Z,32.30
2019-03-29T09:41:04.955Z,30.77
2019-03-29T09:43:34.727Z,31.47
2019-03-29T09:46:04.615Z,30.17
2019-03-29T09:48:34.880Z,25.83
2019-03-29T09:51:05.052Z,27.83
2019-03-29T09:53:34.987Z,26.80
2019-03-29T09:56:05.243Z,26.30
2019-03-29T09:58:34.986Z,24.00
2019-03-29T10:01:05.208Z,24.43
2019-03-29T10:03:35.415Z,23.83
2019-03-29T10:06:05.129Z,21.47
2019-03-29T10:08:35.179Z,21.83
2019-03-29T10:11:04.957Z,20.90
2019-03-29T10:13:35.070Z,23.60
2019-03-29T10:16:04.938Z,21.80
2019-03-29T10:18:35.076Z,23.23
2019-03-29T10:21:04.952Z,22.90
2019-03-29T10:23:34.760Z,23.60
2019-03-29T10:26:04.927Z,22.77
2019-03-29T10:28:34.658Z,20.83
2019-03-29T10:31:04.725Z,20.93
2019-03-29T10:33:34.528Z,19.73
2019-03-29T10:36:04.613Z,16.07
2019-03-29T10:38:34.329Z,16.57
2019-03-29T10:41:04.128Z,17.80
2019-03-29T10:43:34.396Z,15.67
2019-03-29T10:46:04.441Z,16.77
2019-03-29T10:48:34.509Z,16.67
2019-03-29T10:51:04.263Z,18.03
2019-03-29T10:53:34.198Z,19.40
2019-03-29T10:56:04.442Z,18.83
2019-03-29T10:58:35.982Z,17.33
2019-03-29T11:01:05.972Z,18.07
2019-03-29T11:03:36.450Z,20.27
2019-03-29T11:06:06.247Z,19.67
2019-03-29T11:08:36.119Z,16.27
2019-03-29T11:11:05.999Z,13.37
2019-03-29T11:13:40.803Z,13.97
2019-03-29T11:16:09.241Z,15.33
2019-03-29T11:18:39.046Z,12.53
2019-03-29T11:21:08.788Z,15.50
2019-03-29T11:23:38.590Z,18.07
2019-03-29T11:26:09.072Z,15.27
2019-03-29T11:28:38.876Z,14.20
2019-03-29T11:31:08.704Z,2.40
2019-03-29T11:33:42.232Z,7.83
2019-03-29T11:36:12.026Z,9.63
2019-03-29T11:38:41.721Z,9.20
2019-03-29T11:41:11.538Z,7.63
2019-03-29T11:43:41.238Z,8.80
2019-03-29T11:46:11.312Z,8.90
2019-03-29T11:48:41.064Z,8.03
2019-03-29T11:51:19.361Z,10.17
2019-03-29T11:53:43.138Z,12.10
2019-03-29T11:56:12.954Z,12.07
2019-03-29T11:58:42.752Z,11.93
2019-03-29T12:01:12.674Z,12.57
2019-03-29T12:03:42.840Z,11.23
2019-03-29T12:06:12.564Z,11.60
2019-03-29T12:08:42.347Z,11.40
2019-03-29T12:11:12.124Z,12.10
2019-03-29T12:13:42.006Z,11.47
2019-03-29T12:16:11.880Z,10.10
2019-03-29T12:18:41.655Z,8.90
2019-03-29T12:21:11.351Z,9.80
2019-03-29T12:23:41.387Z,8.67
2019-03-29T12:26:11.166Z,10.07
2019-03-29T12:28:40.951Z,8.70
2019-03-29T12:31:10.987Z,8.90
2019-03-29T12:33:41.143Z,8.83
2019-03-29T12:36:11.038Z,8.70
2019-03-29T12:38:40.827Z,9.57
2019-03-29T12:41:10.517Z,9.23
2019-03-29T12:43:40.284Z,11.83
2019-03-29T12:46:09.969Z,9.83
2019-03-29T12:48:40.007Z,9.30
2019-03-29T12:51:09.735Z,9.97
2019-03-29T12:53:39.818Z,11.33
2019-03-29T12:56:09.631Z,10.17
2019-03-29T12:58:39.461Z,10.50
2019-03-29T13:01:09.709Z,9.77
2019-03-29T13:03:39.639Z,10.37
2019-03-29T13:06:09.417Z,10.97
2019-03-29T13:08:39.319Z,11.17
2019-03-29T13:11:09.271Z,11.23
2019-03-29T13:13:42.051Z,12.00
2019-03-29T13:16:11.840Z,13.03
2019-03-29T13:18:41.725Z,11.07
2019-03-29T13:21:11.554Z,11.30
2019-03-29T13:23:41.662Z,11.90
2019-03-29T13:26:11.834Z,11.33
2019-03-29T13:28:41.716Z,10.67
2019-03-29T13:31:11.930Z,10.43
2019-03-29T13:33:41.712Z,10.40
2019-03-29T13:36:11.560Z,10.47
2019-03-29T13:38:41.408Z,12.53
2019-03-29T13:41:11.191Z,12.10
2019-03-29T13:43:41.023Z,11.87
2019-03-29T13:46:10.951Z,10.10
2019-03-29T13:48:41.387Z,12.33
2019-03-29T13:51:11.776Z,12.63
2019-03-29T13:53:41.542Z,12.23
2019-03-29T13:56:11.306Z,12.00
2019-03-29T13:58:41.086Z,11.50
2019-03-29T14:01:10.861Z,10.97
2019-03-29T14:03:41.036Z,13.43
2019-03-29T14:06:11.252Z,11.87
2019-03-29T14:08:41.300Z,12.57
2019-03-29T14:11:11.054Z,12.27
2019-03-29T14:13:40.834Z,13.37
2019-03-29T14:16:10.668Z,13.53
2019-03-29T14:18:40.788Z,16.47
2019-03-29T14:21:10.595Z,14.37
2019-03-29T14:23:40.345Z,14.30
2019-03-29T14:26:10.511Z,14.03
2019-03-29T14:28:40.247Z,16.83
2019-03-29T14:31:10.366Z,15.90
2019-03-29T14:33:40.519Z,15.27
2019-03-29T14:36:10.462Z,17.00
2019-03-29T14:38:40.198Z,13.23
2019-03-29T14:41:10.054Z,15.97
2019-03-29T14:43:39.842Z,17.23
2019-03-29T14:46:09.614Z,18.80
2019-03-29T14:48:39.414Z,16.97
2019-03-29T14:51:09.285Z,16.83
2019-03-29T14:53:39.131Z,15.97
2019-03-29T14:56:09.273Z,16.97
2019-03-29T14:58:39.063Z,15.73
2019-03-29T15:01:09.867Z,13.23
2019-03-29T15:03:40.053Z,12.23
2019-03-29T15:06:10.421Z,8.97
2019-03-29T15:08:40.143Z,7.97
2019-03-29T15:11:21.576Z,5.67
2019-03-29T15:13:41.310Z,10.33
2019-03-29T15:16:11.102Z,10.10
2019-03-29T15:18:40.819Z,10.63
2019-03-29T15:21:10.694Z,9.70
2019-03-29T15:23:40.557Z,6.47
2019-03-29T15:26:10.384Z,6.33
2019-03-29T15:28:40.162Z,5.73
2019-03-29T15:31:10.287Z,6.43
2019-03-29T15:33:40.112Z,5.97
2019-03-29T15:36:10.680Z,5.30
2019-03-29T15:38:40.407Z,5.47
2019-03-29T15:41:10.196Z,6.03
2019-03-29T15:43:42.937Z,5.87
2019-03-29T15:46:12.692Z,6.60
2019-03-29T15:48:42.496Z,5.80
2019-03-29T15:51:12.374Z,5.80
2019-03-29T15:53:42.096Z,5.87
2019-03-29T15:56:12.490Z,5.93
2019-03-29T15:58:42.281Z,6.87
2019-03-29T16:01:12.230Z,7.40
2019-03-29T16:03:42.075Z,7.20
2019-03-29T16:06:11.938Z,10.60
2019-03-29T16:08:41.878Z,6.73
2019-03-29T16:11:17.003Z,8.97
2019-03-29T16:13:43.481Z,8.00
2019-03-29T16:16:13.995Z,7.80
2019-03-29T16:18:44.112Z,7.73
2019-03-29T16:21:13.834Z,8.53
2019-03-29T16:23:43.637Z,8.90
2019-03-29T16:26:13.451Z,8.17
2019-03-29T16:28:43.541Z,8.13
2019-03-29T16:31:13.303Z,8.00
2019-03-29T16:33:43.480Z,7.27
2019-03-29T16:36:13.415Z,6.93
2019-03-29T16:38:43.228Z,7.00
2019-03-29T16:41:13.394Z,6.30
2019-03-29T16:43:43.564Z,6.60
2019-03-29T16:46:13.263Z,11.73
2019-03-29T16:48:43.067Z,8.57
2019-03-29T16:51:13.147Z,7.90
2019-03-29T16:53:43.651Z,6.60
2019-03-29T16:56:13.564Z,7.47
2019-03-29T16:58:43.602Z,8.03
2019-03-29T17:01:13.411Z,6.97
2019-03-29T17:03:43.506Z,6.87
2019-03-29T17:06:13.718Z,7.27
2019-03-29T17:08:43.778Z,8.00
2019-03-29T17:11:14.289Z,15.23
2019-03-29T17:13:44.402Z,9.40
2019-03-29T17:16:14.518Z,8.47
2019-03-29T17:18:44.579Z,7.77
2019-03-29T17:21:14.375Z,8.77
2019-03-29T17:23:44.870Z,7.07
2019-03-29T17:26:14.944Z,9.30
2019-03-29T17:28:44.718Z,7.60
2019-03-29T17:31:14.958Z,7.13
2019-03-29T17:33:44.751Z,9.27
2019-03-29T17:36:14.553Z,7.67
2019-03-29T17:38:44.340Z,8.07
2019-03-29T17:41:14.103Z,8.30
2019-03-29T17:43:44.260Z,9.27
2019-03-29T17:46:16.522Z,9.60
2019-03-29T17:48:45.444Z,9.33
2019-03-29T17:51:15.320Z,9.53
2019-03-29T17:53:45.020Z,10.07
2019-03-29T17:56:15.032Z,13.17
2019-03-29T17:58:45.162Z,11.13
2019-03-29T18:01:15.008Z,10.60
2019-03-29T18:03:44.705Z,9.30
2019-03-29T18:06:14.894Z,11.07
2019-03-29T18:08:44.674Z,10.10
2019-03-29T18:11:14.456Z,10.43
2019-03-29T18:13:44.185Z,12.50
2019-03-29T18:16:14.339Z,12.63
2019-03-29T18:18:44.503Z,13.00
2019-03-29T18:21:14.380Z,11.40
2019-03-29T18:23:45.056Z,10.90
2019-03-29T18:26:15.279Z,12.97
2019-03-29T18:28:45.114Z,14.77
2019-03-29T18:31:14.866Z,12.30
2019-03-29T18:33:45.082Z,13.43
2019-03-29T18:36:15.148Z,11.67
2019-03-29T18:38:47.179Z,11.33
2019-03-29T18:41:17.337Z,12.97
2019-03-29T18:43:47.250Z,12.30
2019-03-29T18:46:17.186Z,12.03
2019-03-29T18:48:47.221Z,12.27
2019-03-29T18:51:17.257Z,13.00
2019-03-29T18:53:47.237Z,12.90
2019-03-29T18:56:17.694Z,15.70
2019-03-29T18:58:47.417Z,11.40
2019-03-29T19:01:17.585Z,13.83
2019-03-29T19:03:47.490Z,13.20
2019-03-29T19:06:17.339Z,12.23
2019-03-29T19:08:47.149Z,12.43
2019-03-29T19:11:16.981Z,13.23
2019-03-29T19:13:47.142Z,11.10
2019-03-29T19:16:17.001Z,12.50
2019-03-29T19:18:47.175Z,12.77
2019-03-29T19:21:17.094Z,12.83
2019-03-29T19:23:46.866Z,12.53
2019-03-29T19:26:16.731Z,13.83
2019-03-29T19:28:46.645Z,11.90
2019-03-29T19:31:16.417Z,12.17
2019-03-29T19:33:46.875Z,11.93
2019-03-29T19:36:16.756Z,13.33
2019-03-29T19:38:46.637Z,11.80
2019-03-29T19:41:16.456Z,12.07
2019-03-29T19:43:46.175Z,11.40
2019-03-29T19:46:16.593Z,10.93
2019-03-29T19:48:46.374Z,11.77
2019-03-29T19:51:16.117Z,11.17
2019-03-29T19:53:45.834Z,14.50
2019-03-29T19:56:15.948Z,11.77
2019-03-29T19:58:46.077Z,10.97
2019-03-29T20:01:15.863Z,15.13
2019-03-29T20:03:45.628Z,10.73
2019-03-29T20:06:15.805Z,12.37
2019-03-29T20:08:45.533Z,13.03
2019-03-29T20:11:15.436Z,13.47
2019-03-29T20:13:45.223Z,11.67
2019-03-29T20:16:15.394Z,12.33
2019-03-29T20:18:45.876Z,14.13
2019-03-29T20:21:16.078Z,13.00
2019-03-29T20:23:46.324Z,11.97
2019-03-29T20:26:16.138Z,12.77
2019-03-29T20:28:46.217Z,11.70
2019-03-29T20:31:16.381Z,13.87
2019-03-29T20:33:46.245Z,11.77
2019-03-29T20:36:22.795Z,13.03
2019-03-29T20:38:47.528Z,11.63
2019-03-29T20:41:17.330Z,14.13
2019-03-29T20:43:47.435Z,13.80
2019-03-29T20:46:17.613Z,14.03
2019-03-29T20:48:47.477Z,13.73
2019-03-29T20:51:17.564Z,13.13
2019-03-29T20:53:47.310Z,15.37
2019-03-29T20:56:17.130Z,11.43
2019-03-29T20:58:47.416Z,12.87
2019-03-29T21:01:17.330Z,12.40
2019-03-29T21:03:47.491Z,11.70
2019-03-29T21:06:17.912Z,11.50
2019-03-29T21:08:47.709Z,10.83
2019-03-29T21:11:18.160Z,12.23
2019-03-29T21:13:48.355Z,12.03
2019-03-29T21:16:18.253Z,12.70
2019-03-29T21:18:48.296Z,12.63
2019-03-29T21:21:18.076Z,13.23
2019-03-29T21:23:48.355Z,15.27
2019-03-29T21:26:18.317Z,12.07
2019-03-29T21:28:48.151Z,11.53
2019-03-29T21:31:18.033Z,12.77
2019-03-29T21:33:48.451Z,12.37
2019-03-29T21:36:18.460Z,14.13
2019-03-29T21:38:48.363Z,11.33
2019-03-29T21:41:18.166Z,12.17
2019-03-29T21:43:48.388Z,12.10
2019-03-29T21:46:18.735Z,10.80
2019-03-29T21:48:48.713Z,10.40
2019-03-29T21:51:18.508Z,13.70
2019-03-29T21:53:48.773Z,10.67
2019-03-29T21:56:18.698Z,13.40
2019-03-29T21:58:48.425Z,11.20
2019-03-29T22:01:18.195Z,11.43
2019-03-29T22:03:47.961Z,13.63
2019-03-29T22:06:17.690Z,10.93
2019-03-29T22:08:47.421Z,11.30
2019-03-29T22:11:17.555Z,10.30
2019-03-29T22:13:47.995Z,11.40
2019-03-29T22:16:17.806Z,10.00
2019-03-29T22:18:54.163Z,12.47
2019-03-29T22:21:26.583Z,10.47
2019-03-29T22:23:56.358Z,11.07
2019-03-29T22:26:26.070Z,10.10
2019-03-29T22:28:56.136Z,10.53
2019-03-29T22:31:26.211Z,11.67
2019-03-29T22:33:56.230Z,10.83
2019-03-29T22:36:26.348Z,10.77
2019-03-29T22:38:56.149Z,14.17
2019-03-29T22:41:25.875Z,10.60
2019-03-29T22:43:56.203Z,10.07
2019-03-29T22:46:26.283Z,10.60
2019-03-29T22:48:55.998Z,9.33
2019-03-29T22:51:26.370Z,11.03
2019-03-29T22:53:56.178Z,10.23
2019-03-29T22:56:26.423Z,14.73
2019-03-29T22:58:56.247Z,11.77
2019-03-29T23:01:26.310Z,10.70
2019-03-29T23:03:56.030Z,10.80
2019-03-29T23:06:25.750Z,11.13
2019-03-29T23:08:55.514Z,12.73
2019-03-29T23:11:25.276Z,13.73
2019-03-29T23:13:55.282Z,11.50
2019-03-29T23:16:24.994Z,11.23
2019-03-29T23:19:05.785Z,11.03
2019-03-29T23:21:26.640Z,12.23
2019-03-29T23:23:56.751Z,14.00
2019-03-29T23:26:26.537Z,12.53
2019-03-29T23:28:56.716Z,10.70
2019-03-29T23:31:26.440Z,11.20
2019-03-29T23:33:56.239Z,10.63
2019-03-29T23:36:25.998Z,11.27
2019-03-29T23:38:56.077Z,12.63
2019-03-29T23:41:26.169Z,10.07
2019-03-29T23:43:55.962Z,12.43
2019-03-29T23:46:25.682Z,11.50
2019-03-29T23:48:55.449Z,12.20
2019-03-29T23:51:25.182Z,11.07
2019-03-29T23:53:55.335Z,14.10
2019-03-29T23:56:25.380Z,11.57
2019-03-29T23:58:55.118Z,13.20
